Time;durP1;ratioP1;P1;durP2;ratioP2;P2;SDS_P1;SDS_P2;PMS_P1;PMS_P2;Temp;Humidity;BMP_temperature;BMP_pressure;BME280_temperature;BME280_humidity;BME280_pressure;Samples;Min_cycle;Max_cycle;Signal;HPM_P1;HPM_P2
2021/01/31 00:00:23;;;;;;;44.50;17.77;;;;;;;;;;5046065;28;20581;-70
2021/01/31 00:02:49;;;;;;;41.80;17.33;;;;;;;;;;5046146;28;20216;-70
2021/01/31 00:05:15;;;;;;;42.87;16.60;;;;;;;;;;5037200;28;20569;-70
2021/01/31 00:07:41;;;;;;;45.63;17.43;;;;;;;;;;5039653;28;20189;-70
2021/01/31 00:10:07;;;;;;;44.50;18.43;;;;;;;;;;5030763;28;20256;-70
2021/01/31 00:12:33;;;;;;;48.40;18.43;;;;;;;;;;5036540;28;20189;-70
2021/01/31 00:14:59;;;;;;;41.80;16.70;;;;;;;;;;5026826;28;20193;-70
2021/01/31 00:17:24;;;;;;;46.67;17.67;;;;;;;;;;5036344;28;20197;-70
2021/01/31 00:19:49;;;;;;;44.93;17.43;;;;;;;;;;5023992;28;20190;-70
2021/01/31 00:22:15;;;;;;;47.07;17.97;;;;;;;;;;5038266;28;20300;-70
2021/01/31 00:24:40;;;;;;;44.43;18.13;;;;;;;;;;5025380;28;20193;-70
2021/01/31 00:27:05;;;;;;;46.43;17.87;;;;;;;;;;5035478;28;20730;-70
2021/01/31 00:29:31;;;;;;;41.07;17.30;;;;;;;;;;5023341;28;20189;-70
2021/01/31 00:31:56;;;;;;;43.13;18.57;;;;;;;;;;5034404;28;20196;-70
2021/01/31 00:34:21;;;;;;;44.87;18.30;;;;;;;;;;5032171;28;20194;-70
2021/01/31 00:36:48;;;;;;;42.97;17.17;;;;;;;;;;5017639;28;20275;-70
2021/01/31 00:39:14;;;;;;;41.93;16.80;;;;;;;;;;5032735;28;20587;-70
2021/01/31 00:41:39;;;;;;;42.93;18.33;;;;;;;;;;5042519;28;20205;-70
2021/01/31 00:44:06;;;;;;;42.73;16.40;;;;;;;;;;5035491;28;20189;-70
2021/01/31 00:46:37;;;;;;;45.23;17.57;;;;;;;;;;5026937;28;20193;-70
2021/01/31 00:49:03;;;;;;;45.10;17.87;;;;;;;;;;5036970;28;20236;-70
2021/01/31 00:51:29;;;;;;;43.97;17.40;;;;;;;;;;5025068;28;20658;-70
2021/01/31 00:53:54;;;;;;;45.73;18.10;;;;;;;;;;5037591;28;20217;-70
2021/01/31 00:56:19;;;;;;;51.40;18.13;;;;;;;;;;5026859;28;20277;-70
2021/01/31 00:58:45;;;;;;;50.17;18.83;;;;;;;;;;5038066;28;20194;-70
2021/01/31 01:01:11;;;;;;;50.73;18.20;;;;;;;;;;5027191;28;20174;-70
2021/01/31 01:03:36;;;;;;;46.73;17.47;;;;;;;;;;5035990;28;20185;-70
2021/01/31 01:06:02;;;;;;;44.73;17.33;;;;;;;;;;5035140;28;20205;-70
2021/01/31 01:08:28;;;;;;;48.23;19.23;;;;;;;;;;5028897;28;20216;-70
2021/01/31 01:10:53;;;;;;;45.40;17.60;;;;;;;;;;5041334;28;20228;-70
2021/01/31 01:13:18;;;;;;;49.63;19.13;;;;;;;;;;5033386;28;20267;-70
2021/01/31 01:15:44;;;;;;;49.70;18.57;;;;;;;;;;5039585;28;20181;-70
2021/01/31 01:18:09;;;;;;;44.73;17.73;;;;;;;;;;5031976;28;20190;-70
2021/01/31 01:20:34;;;;;;;48.33;18.57;;;;;;;;;;5038656;28;20185;-70
2021/01/31 01:23:00;;;;;;;48.67;19.10;;;;;;;;;;5030771;28;20216;-70
2021/01/31 01:25:25;;;;;;;47.50;19.10;;;;;;;;;;5040041;28;20193;-70
2021/01/31 01:27:51;;;;;;;44.47;17.33;;;;;;;;;;5030216;28;20197;-70
2021/01/31 01:30:20;;;;;;;49.83;18.40;;;;;;;;;;5039847;28;20189;-70
2021/01/31 01:32:45;;;;;;;48.13;19.23;;;;;;;;;;5030939;28;20723;-70
2021/01/31 01:35:12;;;;;;;49.30;18.20;;;;;;;;;;5040290;28;20177;-70
2021/01/31 01:37:37;;;;;;;52.33;19.00;;;;;;;;;;5038603;28;20232;-71
2021/01/31 01:40:05;;;;;;;46.17;17.37;;;;;;;;;;5032177;28;20653;-71
2021/01/31 01:42:31;;;;;;;49.23;19.43;;;;;;;;;;5040307;28;20645;-71
2021/01/31 01:44:56;;;;;;;48.83;18.67;;;;;;;;;;5047519;28;20357;-71
2021/01/31 01:47:25;;;;;;;53.67;18.03;;;;;;;;;;5039250;28;20186;-71
2021/01/31 01:49:56;;;;;;;48.60;18.13;;;;;;;;;;5027895;28;20181;-71
2021/01/31 01:52:39;;;;;;;45.80;16.83;;;;;;;;;;5041171;28;20208;-71
2021/01/31 01:55:11;;;;;;;49.37;18.43;;;;;;;;;;5032447;28;20193;-71
2021/01/31 01:57:47;;;;;;;50.43;18.67;;;;;;;;;;5039536;28;20631;-71
2021/01/31 02:00:13;;;;;;;46.47;17.33;;;;;;;;;;5034011;28;20196;-70
2021/01/31 02:02:43;;;;;;;49.20;16.93;;;;;;;;;;5039678;28;20231;-70
2021/01/31 02:05:13;;;;;;;56.70;17.40;;;;;;;;;;5030661;28;20218;-70
2021/01/31 02:07:38;;;;;;;49.77;17.60;;;;;;;;;;5037041;28;20177;-70
2021/01/31 02:10:07;;;;;;;55.80;18.00;;;;;;;;;;5031340;28;20668;-71
2021/01/31 02:12:32;;;;;;;44.73;16.43;;;;;;;;;;5038248;28;20189;-71
2021/01/31 02:15:00;;;;;;;56.80;20.33;;;;;;;;;;5032242;28;20190;-71
2021/01/31 02:17:35;;;;;;;53.70;17.37;;;;;;;;;;5036615;28;20281;-71
2021/01/31 02:20:29;;;;;;;53.20;18.87;;;;;;;;;;5037703;28;20644;-71
2021/01/31 02:23:32;;;;;;;56.73;19.27;;;;;;;;;;5038080;28;20213;-71
2021/01/31 02:26:07;;;;;;;53.07;17.80;;;;;;;;;;5028030;28;20250;-71
2021/01/31 02:28:49;;;;;;;52.33;17.97;;;;;;;;;;5040100;28;20651;-71
2021/01/31 02:31:45;;;;;;;55.17;18.03;;;;;;;;;;5032525;28;20232;-71
2021/01/31 02:34:31;;;;;;;51.47;17.73;;;;;;;;;;5039053;28;20212;-71
2021/01/31 02:37:21;;;;;;;56.03;18.10;;;;;;;;;;5033370;28;20240;-71
2021/01/31 02:40:00;;;;;;;52.53;17.03;;;;;;;;;;5038906;28;20518;-71
2021/01/31 02:42:38;;;;;;;57.40;19.33;;;;;;;;;;5033026;28;20202;-71
2021/01/31 02:45:15;;;;;;;51.97;18.20;;;;;;;;;;5040250;28;20548;-71
2021/01/31 02:48:06;;;;;;;59.53;20.80;;;;;;;;;;5031724;28;21207;-71
2021/01/31 02:50:38;;;;;;;53.37;18.40;;;;;;;;;;5053389;28;20219;-71
2021/01/31 02:53:15;;;;;;;60.30;18.73;;;;;;;;;;5044686;28;20272;-71
2021/01/31 02:55:47;;;;;;;59.80;18.77;;;;;;;;;;5041379;28;20195;-71
2021/01/31 02:58:34;;;;;;;55.37;19.10;;;;;;;;;;5030848;28;23183;-71
2021/01/31 03:01:14;;;;;;;59.47;18.83;;;;;;;;;;5038362;28;20216;-71
2021/01/31 03:03:58;;;;;;;58.10;18.40;;;;;;;;;;5030475;28;20680;-71
2021/01/31 03:06:28;;;;;;;62.03;19.03;;;;;;;;;;5037040;28;20207;-71
2021/01/31 03:08:59;;;;;;;55.00;18.50;;;;;;;;;;5029166;28;20193;-71
2021/01/31 03:11:40;;;;;;;56.00;19.47;;;;;;;;;;5038724;28;20339;-71
2021/01/31 03:14:16;;;;;;;56.03;19.37;;;;;;;;;;5030749;28;20223;-71
2021/01/31 03:16:48;;;;;;;66.07;19.67;;;;;;;;;;5037964;28;20704;-71
2021/01/31 03:19:22;;;;;;;51.37;18.43;;;;;;;;;;5028972;28;20319;-71
2021/01/31 03:21:54;;;;;;;56.20;18.30;;;;;;;;;;5037549;28;20217;-71
2021/01/31 03:24:28;;;;;;;54.87;18.53;;;;;;;;;;5030484;28;20189;-71
2021/01/31 03:27:00;;;;;;;56.87;19.13;;;;;;;;;;5040507;28;20185;-71
2021/01/31 03:29:26;;;;;;;58.20;18.97;;;;;;;;;;5030378;28;20185;-71
2021/01/31 03:31:58;;;;;;;57.03;19.47;;;;;;;;;;5035353;28;20231;-71
2021/01/31 03:34:29;;;;;;;58.77;18.93;;;;;;;;;;5030261;28;20889;-71
2021/01/31 03:37:00;;;;;;;62.90;19.97;;;;;;;;;;5037186;28;20226;-71
2021/01/31 03:39:27;;;;;;;65.90;20.47;;;;;;;;;;5029678;28;20526;-71
2021/01/31 03:41:52;;;;;;;63.30;19.03;;;;;;;;;;5038221;28;20223;-71
2021/01/31 03:44:18;;;;;;;61.03;18.50;;;;;;;;;;5039077;28;20174;-71
2021/01/31 03:47:01;;;;;;;59.00;17.87;;;;;;;;;;5026911;28;20695;-71
2021/01/31 03:49:41;;;;;;;54.33;18.50;;;;;;;;;;5038776;28;20562;-71
2021/01/31 03:52:07;;;;;;;57.30;18.80;;;;;;;;;;5031568;28;20522;-71
2021/01/31 03:54:32;;;;;;;61.07;19.57;;;;;;;;;;5039933;28;20182;-71
2021/01/31 03:57:04;;;;;;;60.47;19.30;;;;;;;;;;5028903;28;20662;-71
2021/01/31 03:59:37;;;;;;;59.50;18.90;;;;;;;;;;5038635;28;20220;-71
2021/01/31 04:02:04;;;;;;;59.40;19.23;;;;;;;;;;5030086;28;20315;-71
2021/01/31 04:04:36;;;;;;;62.27;19.70;;;;;;;;;;5037021;28;20244;-71
2021/01/31 04:07:04;;;;;;;49.10;17.20;;;;;;;;;;5030317;28;20725;-71
2021/01/31 04:09:32;;;;;;;48.10;16.90;;;;;;;;;;5040183;28;20182;-71
2021/01/31 04:12:07;;;;;;;55.10;19.07;;;;;;;;;;5028182;28;20227;-71
2021/01/31 04:14:44;;;;;;;56.27;18.30;;;;;;;;;;5038609;28;20739;-71
2021/01/31 04:17:10;;;;;;;53.33;17.63;;;;;;;;;;5032373;28;20560;-71
2021/01/31 04:19:35;;;;;;;64.70;18.77;;;;;;;;;;5039765;28;20189;-71
2021/01/31 04:22:00;;;;;;;65.03;19.00;;;;;;;;;;5029400;28;20206;-71
2021/01/31 04:24:26;;;;;;;58.67;18.40;;;;;;;;;;5035277;28;20193;-71
2021/01/31 04:26:51;;;;;;;63.00;20.33;;;;;;;;;;5027326;28;20660;-71
2021/01/31 04:29:16;;;;;;;70.93;20.33;;;;;;;;;;5039058;28;20649;-71
2021/01/31 04:31:42;;;;;;;75.30;20.77;;;;;;;;;;5037388;28;20182;-71
2021/01/31 04:34:07;;;;;;;70.17;20.47;;;;;;;;;;5028407;28;20192;-71
2021/01/31 04:36:33;;;;;;;61.57;19.53;;;;;;;;;;5036427;28;20316;-71
2021/01/31 04:38:58;;;;;;;67.97;21.57;;;;;;;;;;5028692;28;20238;-71
2021/01/31 04:41:31;;;;;;;62.63;20.17;;;;;;;;;;5037467;28;20593;-71
2021/01/31 04:43:56;;;;;;;54.00;17.43;;;;;;;;;;5031297;28;20189;-71
2021/01/31 04:46:24;;;;;;;57.27;18.87;;;;;;;;;;5040938;28;20197;-71
2021/01/31 04:49:10;;;;;;;59.27;19.07;;;;;;;;;;5035376;28;20181;-71
2021/01/31 04:51:53;;;;;;;53.97;17.00;;;;;;;;;;5043048;28;20250;-71
2021/01/31 04:54:46;;;;;;;59.03;18.30;;;;;;;;;;5050892;28;20695;-71
2021/01/31 04:57:17;;;;;;;64.30;19.20;;;;;;;;;;5047006;28;20219;-71
2021/01/31 04:59:47;;;;;;;65.17;19.30;;;;;;;;;;5034822;28;20185;-71
2021/01/31 05:02:37;;;;;;;62.23;18.77;;;;;;;;;;5045060;28;20216;-71
2021/01/31 05:05:03;;;;;;;60.73;19.03;;;;;;;;;;5034464;28;20208;-71
2021/01/31 05:07:48;;;;;;;56.63;19.17;;;;;;;;;;5041371;28;20246;-71
2021/01/31 05:10:13;;;;;;;66.57;20.33;;;;;;;;;;5034689;28;20204;-71
2021/01/31 05:12:44;;;;;;;68.37;20.50;;;;;;;;;;5043148;28;20181;-71
2021/01/31 05:15:19;;;;;;;71.70;20.03;;;;;;;;;;5035352;28;20274;-71
2021/01/31 05:17:47;;;;;;;59.73;18.93;;;;;;;;;;5041514;28;20250;-71
2021/01/31 05:20:14;;;;;;;64.07;20.27;;;;;;;;;;5034026;28;20177;-71
2021/01/31 05:22:44;;;;;;;65.83;20.13;;;;;;;;;;5041875;28;20344;-71
2021/01/31 05:25:13;;;;;;;59.10;18.13;;;;;;;;;;5036366;28;20579;-71
2021/01/31 05:27:39;;;;;;;69.10;18.73;;;;;;;;;;5043653;28;20191;-71
2021/01/31 05:30:05;;;;;;;59.13;18.97;;;;;;;;;;5034956;28;20200;-71
2021/01/31 05:32:51;;;;;;;63.97;20.27;;;;;;;;;;5043334;28;20553;-71
2021/01/31 05:35:22;;;;;;;69.93;20.07;;;;;;;;;;5038584;28;20216;-71
2021/01/31 05:37:47;;;;;;;56.93;19.63;;;;;;;;;;5039208;28;20287;-71
2021/01/31 05:40:27;;;;;;;62.17;18.47;;;;;;;;;;5044421;28;20861;-71
2021/01/31 05:42:53;;;;;;;70.37;19.03;;;;;;;;;;5035499;28;20217;-71
2021/01/31 05:45:21;;;;;;;69.87;21.37;;;;;;;;;;5044334;28;20519;-71
2021/01/31 05:47:49;;;;;;;68.80;19.33;;;;;;;;;;5033308;28;20196;-71
2021/01/31 05:50:35;;;;;;;70.83;21.03;;;;;;;;;;5042083;28;20277;-71
2021/01/31 05:53:31;;;;;;;73.50;21.37;;;;;;;;;;5034931;28;20192;-71
2021/01/31 05:56:22;;;;;;;68.53;20.43;;;;;;;;;;5039112;28;20606;-71
2021/01/31 05:59:11;;;;;;;69.13;22.80;;;;;;;;;;5029620;28;20201;-71
2021/01/31 06:01:51;;;;;;;77.03;21.43;;;;;;;;;;5038207;28;20754;-71
2021/01/31 06:04:17;;;;;;;80.37;22.53;;;;;;;;;;5041884;28;20209;-71
2021/01/31 06:06:45;;;;;;;72.93;21.23;;;;;;;;;;5039086;28;20235;-71
2021/01/31 06:09:19;;;;;;;78.60;20.97;;;;;;;;;;5030535;28;20194;-71
2021/01/31 06:11:45;;;;;;;72.73;23.10;;;;;;;;;;5037038;28;20894;-71
2021/01/31 06:14:13;;;;;;;79.43;22.37;;;;;;;;;;5029397;28;20251;-71
2021/01/31 06:16:41;;;;;;;67.07;22.00;;;;;;;;;;5039601;28;20628;-71
2021/01/31 06:19:10;;;;;;;79.67;22.30;;;;;;;;;;5030113;28;20660;-71
2021/01/31 06:21:43;;;;;;;74.67;22.17;;;;;;;;;;5038721;28;20193;-71
2021/01/31 06:24:28;;;;;;;76.77;22.77;;;;;;;;;;5032352;28;20192;-71
2021/01/31 06:26:58;;;;;;;76.37;23.20;;;;;;;;;;5037098;28;20190;-71
2021/01/31 06:29:52;;;;;;;81.17;21.67;;;;;;;;;;5028628;28;20200;-71
2021/01/31 06:32:22;;;;;;;71.50;22.53;;;;;;;;;;5033281;28;20187;-71
2021/01/31 06:34:52;;;;;;;83.60;23.17;;;;;;;;;;5028833;28;20177;-71
2021/01/31 06:37:43;;;;;;;79.93;23.60;;;;;;;;;;5039913;28;20656;-71
2021/01/31 06:40:08;;;;;;;78.40;22.97;;;;;;;;;;5030794;28;20200;-71
2021/01/31 06:42:55;;;;;;;71.10;20.93;;;;;;;;;;5055396;28;20440;-71
2021/01/31 06:45:44;;;;;;;78.87;22.03;;;;;;;;;;5034230;28;20198;-71
2021/01/31 06:48:34;;;;;;;83.73;22.17;;;;;;;;;;5039124;28;20201;-71
2021/01/31 06:51:12;;;;;;;72.10;22.10;;;;;;;;;;4682649;28;10000379;-71
2021/01/31 06:53:47;;;;;;;66.53;20.00;;;;;;;;;;5038009;28;20186;-71
2021/01/31 06:56:51;;;;;;;72.77;21.47;;;;;;;;;;5030358;28;20192;-71
2021/01/31 06:59:46;;;;;;;67.03;20.43;;;;;;;;;;5053883;28;20247;-71
2021/01/31 07:02:41;;;;;;;86.73;22.70;;;;;;;;;;5035689;28;20211;-71
2021/01/31 07:05:18;;;;;;;69.50;21.83;;;;;;;;;;5033086;28;20648;-71
2021/01/31 07:08:11;;;;;;;71.67;21.50;;;;;;;;;;5035562;28;20275;-71
2021/01/31 07:10:54;;;;;;;73.60;21.80;;;;;;;;;;5029052;28;20264;-71
2021/01/31 07:14:16;;;;;;;71.33;22.00;;;;;;;;;;5041399;28;20204;-71
2021/01/31 07:17:05;;;;;;;71.83;20.67;;;;;;;;;;5010115;28;20633;-71
2021/01/31 07:19:41;;;;;;;60.50;19.67;;;;;;;;;;5013871;28;20214;-71
2021/01/31 07:22:12;;;;;;;76.53;20.20;;;;;;;;;;5024527;28;20216;-72
2021/01/31 07:24:46;;;;;;;64.23;18.80;;;;;;;;;;5033228;28;20598;-72
2021/01/31 07:27:34;;;;;;;71.40;22.10;;;;;;;;;;5028173;28;20193;-71
2021/01/31 07:30:21;;;;;;;66.40;21.07;;;;;;;;;;5037112;28;20205;-72
2021/01/31 07:32:59;;;;;;;66.60;20.37;;;;;;;;;;5027125;28;20626;-72
2021/01/31 07:35:32;;;;;;;78.90;23.40;;;;;;;;;;5037332;28;20185;-72
2021/01/31 07:38:08;;;;;;;73.73;21.13;;;;;;;;;;5031817;28;20269;-72
2021/01/31 07:40:34;;;;;;;72.43;21.60;;;;;;;;;;5040910;28;20264;-72
2021/01/31 07:43:01;;;;;;;73.90;22.13;;;;;;;;;;5024677;28;20205;-72
2021/01/31 07:45:26;;;;;;;77.30;21.87;;;;;;;;;;5036372;28;20282;-72
2021/01/31 07:48:30;;;;;;;79.00;21.90;;;;;;;;;;5027552;28;20660;-72
2021/01/31 07:50:56;;;;;;;74.73;21.93;;;;;;;;;;5032087;28;20347;-72
2021/01/31 07:53:37;;;;;;;70.40;22.33;;;;;;;;;;5025357;28;20625;-72
2021/01/31 07:56:28;;;;;;;72.47;21.83;;;;;;;;;;5031651;28;20224;-72
2021/01/31 07:58:56;;;;;;;79.97;22.87;;;;;;;;;;5025859;28;20531;-72
2021/01/31 08:01:37;;;;;;;82.93;23.47;;;;;;;;;;5035787;28;20254;-72
2021/01/31 08:04:14;;;;;;;81.07;22.77;;;;;;;;;;5025282;28;20189;-72
2021/01/31 08:06:42;;;;;;;84.63;23.90;;;;;;;;;;5040566;28;20209;-72
2021/01/31 08:09:08;;;;;;;81.37;24.47;;;;;;;;;;5025068;28;20597;-72
2021/01/31 08:11:36;;;;;;;88.03;25.20;;;;;;;;;;5033919;28;20534;-72
2021/01/31 08:14:03;;;;;;;91.97;25.33;;;;;;;;;;5025731;28;20216;-71
2021/01/31 08:16:40;;;;;;;97.73;25.10;;;;;;;;;;5035169;28;20221;-71
2021/01/31 08:19:14;;;;;;;96.73;25.17;;;;;;;;;;5025573;28;20192;-72
2021/01/31 08:22:01;;;;;;;91.43;24.43;;;;;;;;;;5036530;28;20192;-72
2021/01/31 08:24:57;;;;;;;87.20;23.03;;;;;;;;;;5029233;28;20193;-72
2021/01/31 08:27:37;;;;;;;82.87;22.90;;;;;;;;;;5037302;28;20277;-72
2021/01/31 08:30:13;;;;;;;92.93;23.80;;;;;;;;;;5026843;28;20559;-72
2021/01/31 08:32:57;;;;;;;99.27;24.73;;;;;;;;;;5036865;28;21030;-72
2021/01/31 08:35:29;;;;;;;87.07;24.27;;;;;;;;;;5025916;28;20755;-72
2021/01/31 08:38:16;;;;;;;102.17;24.97;;;;;;;;;;5035796;28;20221;-72
2021/01/31 08:43:32;;;;;;;78.13;23.73;;;;;;;;;;5035355;28;20213;-72
2021/01/31 08:46:08;;;;;;;94.40;25.50;;;;;;;;;;5028301;28;20216;-72
2021/01/31 08:48:33;;;;;;;95.70;25.80;;;;;;;;;;5035979;28;20197;-73
2021/01/31 08:51:24;;;;;;;103.57;27.83;;;;;;;;;;5028801;28;20184;-73
2021/01/31 08:54:28;;;;;;;104.57;28.07;;;;;;;;;;5034967;28;20228;-73
2021/01/31 08:56:57;;;;;;;104.40;27.47;;;;;;;;;;5008973;28;20197;-73
2021/01/31 08:59:43;;;;;;;95.70;28.20;;;;;;;;;;5034492;28;20682;-73
2021/01/31 09:02:14;;;;;;;97.47;29.13;;;;;;;;;;5026009;28;20240;-72
2021/01/31 09:04:44;;;;;;;97.97;28.50;;;;;;;;;;5049268;28;20186;-72
2021/01/31 09:07:10;;;;;;;98.73;29.67;;;;;;;;;;5026914;28;20711;-72
2021/01/31 09:09:39;;;;;;;86.43;28.60;;;;;;;;;;5031812;28;21164;-72
2021/01/31 09:12:08;;;;;;;87.17;27.00;;;;;;;;;;5026208;28;20636;-72
2021/01/31 09:14:37;;;;;;;100.37;30.00;;;;;;;;;;5034688;28;20217;-72
2021/01/31 09:17:09;;;;;;;86.77;28.03;;;;;;;;;;5034216;28;21285;-72
2021/01/31 09:19:35;;;;;;;82.67;27.10;;;;;;;;;;5029840;28;20877;-72
2021/01/31 09:22:04;;;;;;;84.03;28.97;;;;;;;;;;5034968;28;20628;-72
2021/01/31 09:24:34;;;;;;;86.33;28.70;;;;;;;;;;5025248;28;20312;-72
2021/01/31 09:27:00;;;;;;;83.73;27.77;;;;;;;;;;5035556;28;20212;-72
2021/01/31 09:29:29;;;;;;;71.23;25.70;;;;;;;;;;5025274;28;20728;-71
2021/01/31 09:32:03;;;;;;;66.87;24.17;;;;;;;;;;5036326;28;20185;-71
2021/01/31 09:34:29;;;;;;;66.53;22.90;;;;;;;;;;5030801;28;20260;-72
2021/01/31 09:37:05;;;;;;;63.90;23.83;;;;;;;;;;5039828;28;20235;-72
2021/01/31 09:39:32;;;;;;;61.57;23.13;;;;;;;;;;5029137;28;20196;-72
2021/01/31 09:41:57;;;;;;;56.30;20.83;;;;;;;;;;5038504;28;20217;-72
2021/01/31 09:44:23;;;;;;;53.77;21.20;;;;;;;;;;5031065;28;20193;-72
2021/01/31 09:46:48;;;;;;;54.97;21.40;;;;;;;;;;5037287;28;20196;-71
2021/01/31 09:49:19;;;;;;;50.53;20.33;;;;;;;;;;5028092;28;20626;-72
2021/01/31 09:51:45;;;;;;;45.47;19.10;;;;;;;;;;5037802;28;20197;-71
2021/01/31 09:54:30;;;;;;;48.30;19.13;;;;;;;;;;5035404;28;20193;-71
2021/01/31 09:56:58;;;;;;;49.00;19.40;;;;;;;;;;5040109;28;20492;-72
2021/01/31 09:59:30;;;;;;;52.33;19.90;;;;;;;;;;5036879;28;20178;-72
2021/01/31 10:02:11;;;;;;;48.67;19.10;;;;;;;;;;5040375;28;20205;-72
2021/01/31 10:04:38;;;;;;;43.97;18.67;;;;;;;;;;5037854;28;20181;-71
2021/01/31 10:07:13;;;;;;;43.47;18.67;;;;;;;;;;5030227;28;20185;-71
2021/01/31 10:09:43;;;;;;;45.00;18.63;;;;;;;;;;5033505;28;20296;-71
2021/01/31 10:12:27;;;;;;;46.57;18.03;;;;;;;;;;5030436;28;20193;-71
2021/01/31 10:14:55;;;;;;;49.40;19.03;;;;;;;;;;5040000;28;20633;-71
2021/01/31 10:17:34;;;;;;;51.03;19.93;;;;;;;;;;5030174;28;20280;-72
2021/01/31 10:20:29;;;;;;;44.57;18.93;;;;;;;;;;5040612;28;20287;-72
2021/01/31 10:23:16;;;;;;;41.23;17.73;;;;;;;;;;5031199;28;20232;-72
2021/01/31 10:25:55;;;;;;;40.47;17.20;;;;;;;;;;5037304;28;20208;-72
2021/01/31 10:28:30;;;;;;;40.77;17.87;;;;;;;;;;5039810;28;20561;-69
2021/01/31 10:30:58;;;;;;;44.93;16.97;;;;;;;;;;5039407;28;20255;-72
2021/01/31 10:33:43;;;;;;;43.07;18.27;;;;;;;;;;5029930;28;20292;-72
2021/01/31 10:36:26;;;;;;;44.30;18.60;;;;;;;;;;5034595;28;20564;-71
2021/01/31 10:38:53;;;;;;;39.03;17.20;;;;;;;;;;5035860;28;20189;-72
2021/01/31 10:41:19;;;;;;;37.77;17.57;;;;;;;;;;5035920;28;20197;-72
2021/01/31 10:43:53;;;;;;;37.43;16.57;;;;;;;;;;5026814;28;20217;-72
2021/01/31 10:46:18;;;;;;;40.73;17.93;;;;;;;;;;5039594;28;20188;-72
2021/01/31 10:48:43;;;;;;;41.63;18.20;;;;;;;;;;5031404;28;20258;-71
2021/01/31 10:51:09;;;;;;;36.10;16.70;;;;;;;;;;5037157;28;20181;-71
2021/01/31 10:53:36;;;;;;;37.40;17.27;;;;;;;;;;5030627;28;20591;-71
2021/01/31 10:56:01;;;;;;;39.17;17.53;;;;;;;;;;5036586;28;20188;-71
2021/01/31 10:58:27;;;;;;;38.67;17.80;;;;;;;;;;5030046;28;20197;-71
2021/01/31 11:00:52;;;;;;;35.43;16.93;;;;;;;;;;5036926;28;20556;-71
2021/01/31 11:03:17;;;;;;;37.83;17.70;;;;;;;;;;5045343;28;20212;-71
2021/01/31 11:05:43;;;;;;;39.17;17.60;;;;;;;;;;5038481;28;20345;-71
2021/01/31 11:08:08;;;;;;;36.63;17.07;;;;;;;;;;5030302;28;20559;-71
2021/01/31 11:10:33;;;;;;;39.03;17.50;;;;;;;;;;5036596;28;20194;-71
2021/01/31 11:12:58;;;;;;;36.77;18.13;;;;;;;;;;5035090;28;20204;-71
2021/01/31 11:15:24;;;;;;;36.60;18.03;;;;;;;;;;5029091;28;20251;-71
2021/01/31 11:17:49;;;;;;;39.03;18.17;;;;;;;;;;5037348;28;20194;-71
2021/01/31 11:20:14;;;;;;;39.73;17.90;;;;;;;;;;5029654;28;20665;-71
2021/01/31 11:22:40;;;;;;;39.23;18.27;;;;;;;;;;5035525;28;20217;-71
2021/01/31 11:25:06;;;;;;;40.17;18.07;;;;;;;;;;5031402;28;20185;-71
2021/01/31 11:27:31;;;;;;;33.70;17.17;;;;;;;;;;5037454;28;20576;-72
2021/01/31 11:29:57;;;;;;;34.37;16.80;;;;;;;;;;5030819;28;20205;-71
2021/01/31 11:32:23;;;;;;;35.53;17.03;;;;;;;;;;5038413;28;20196;-71
2021/01/31 11:34:49;;;;;;;34.87;17.73;;;;;;;;;;5029738;28;20212;-71
2021/01/31 11:37:14;;;;;;;34.50;17.07;;;;;;;;;;5038878;28;20584;-71
2021/01/31 11:39:40;;;;;;;37.50;17.80;;;;;;;;;;5031312;28;20189;-71
2021/01/31 11:42:05;;;;;;;34.27;17.40;;;;;;;;;;5034081;28;20206;-71
2021/01/31 11:44:31;;;;;;;36.37;17.60;;;;;;;;;;5036477;28;20193;-72
2021/01/31 11:46:57;;;;;;;38.30;17.80;;;;;;;;;;5028064;28;20193;-71
2021/01/31 11:49:22;;;;;;;38.27;18.00;;;;;;;;;;5036206;28;20243;-72
2021/01/31 11:51:47;;;;;;;36.87;16.57;;;;;;;;;;5023893;28;20196;-71
2021/01/31 11:54:13;;;;;;;36.50;17.90;;;;;;;;;;5034450;28;20189;-71
2021/01/31 11:56:38;;;;;;;33.30;17.33;;;;;;;;;;5027783;28;20189;-71
2021/01/31 11:59:03;;;;;;;34.47;17.10;;;;;;;;;;5034295;28;20193;-71
2021/01/31 12:01:29;;;;;;;34.07;17.20;;;;;;;;;;4326951;28;10000829;-71
2021/01/31 12:03:55;;;;;;;31.03;16.23;;;;;;;;;;5033021;28;20749;-71
2021/01/31 12:06:20;;;;;;;33.97;16.33;;;;;;;;;;5027206;28;20236;-71
2021/01/31 12:08:45;;;;;;;36.40;17.70;;;;;;;;;;5033760;28;20530;-71
2021/01/31 12:11:11;;;;;;;32.07;16.30;;;;;;;;;;5033329;28;20198;-71
2021/01/31 12:13:36;;;;;;;32.50;16.17;;;;;;;;;;5026784;28;20198;-71
2021/01/31 12:16:02;;;;;;;30.10;16.73;;;;;;;;;;5032916;28;20829;-71
2021/01/31 12:18:29;;;;;;;33.90;17.10;;;;;;;;;;5025313;28;20653;-71
2021/01/31 12:20:54;;;;;;;31.80;16.50;;;;;;;;;;5035715;28;20197;-71
2021/01/31 12:23:20;;;;;;;29.83;16.53;;;;;;;;;;5027866;28;20932;-71
2021/01/31 12:25:45;;;;;;;32.13;16.00;;;;;;;;;;5037291;28;20676;-71
2021/01/31 12:28:10;;;;;;;34.53;17.30;;;;;;;;;;5028532;28;20676;-71
2021/01/31 12:30:36;;;;;;;34.83;16.73;;;;;;;;;;5031985;28;20630;-71
2021/01/31 12:33:03;;;;;;;32.80;16.43;;;;;;;;;;5027478;28;20641;-71
2021/01/31 12:35:29;;;;;;;32.90;16.67;;;;;;;;;;5035284;28;20600;-71
2021/01/31 12:37:55;;;;;;;30.07;16.13;;;;;;;;;;5024163;28;20237;-71
2021/01/31 12:40:22;;;;;;;28.67;15.83;;;;;;;;;;5035381;28;20501;-71
2021/01/31 12:42:48;;;;;;;30.50;16.27;;;;;;;;;;5032776;28;20315;-71
2021/01/31 12:45:15;;;;;;;30.30;15.00;;;;;;;;;;5026874;28;20840;-71
2021/01/31 12:47:40;;;;;;;32.27;15.97;;;;;;;;;;5032490;28;20653;-71
2021/01/31 12:50:07;;;;;;;29.20;15.63;;;;;;;;;;5026030;28;20201;-71
2021/01/31 12:52:34;;;;;;;30.40;15.77;;;;;;;;;;5035683;28;20979;-71
2021/01/31 12:55:00;;;;;;;28.00;15.03;;;;;;;;;;5019036;28;20186;-71
2021/01/31 12:57:25;;;;;;;28.73;15.17;;;;;;;;;;5035185;28;20684;-71
2021/01/31 12:59:50;;;;;;;31.73;16.50;;;;;;;;;;5027401;28;20189;-71
2021/01/31 13:02:16;;;;;;;31.47;16.43;;;;;;;;;;5035310;28;20693;-71
2021/01/31 13:04:41;;;;;;;28.47;15.77;;;;;;;;;;5028276;28;20671;-71
2021/01/31 13:07:07;;;;;;;32.13;19.10;;;;;;;;;;5038842;28;21038;-71
2021/01/31 13:09:32;;;;;;;29.60;16.00;;;;;;;;;;5029910;28;20896;-71
2021/01/31 13:11:58;;;;;;;28.33;14.97;;;;;;;;;;5039997;28;20281;-71
2021/01/31 13:14:25;;;;;;;25.67;14.47;;;;;;;;;;5056845;28;20556;-71
2021/01/31 13:16:51;;;;;;;26.47;14.37;;;;;;;;;;5031334;28;20300;-72
2021/01/31 13:19:16;;;;;;;25.93;13.77;;;;;;;;;;5042405;28;21036;-72
2021/01/31 13:21:41;;;;;;;29.17;15.20;;;;;;;;;;5029915;28;20193;-72
2021/01/31 13:24:07;;;;;;;26.33;14.63;;;;;;;;;;5042242;28;20268;-72
2021/01/31 13:26:32;;;;;;;24.80;14.23;;;;;;;;;;5047575;28;20264;-71
2021/01/31 13:28:57;;;;;;;23.17;13.23;;;;;;;;;;5039348;28;20186;-72
2021/01/31 13:31:23;;;;;;;25.50;13.73;;;;;;;;;;5031029;28;20225;-72
2021/01/31 13:33:48;;;;;;;26.30;13.27;;;;;;;;;;5052291;28;20186;-72
2021/01/31 13:36:13;;;;;;;26.60;12.93;;;;;;;;;;5023560;28;20316;-72
2021/01/31 13:38:39;;;;;;;25.93;14.20;;;;;;;;;;5030071;28;21318;-72
2021/01/31 13:41:04;;;;;;;23.53;13.40;;;;;;;;;;5027616;28;20270;-72
2021/01/31 13:43:30;;;;;;;23.63;12.90;;;;;;;;;;5026903;28;20202;-72
2021/01/31 13:45:55;;;;;;;24.60;13.80;;;;;;;;;;5031632;28;20399;-71
2021/01/31 13:48:21;;;;;;;22.57;12.30;;;;;;;;;;5022399;28;20198;-71
2021/01/31 13:50:46;;;;;;;23.33;12.80;;;;;;;;;;5044894;28;20181;-72
2021/01/31 13:53:11;;;;;;;23.83;12.53;;;;;;;;;;5023182;28;20756;-72
2021/01/31 13:55:37;;;;;;;21.93;12.50;;;;;;;;;;5032861;28;20537;-73
2021/01/31 13:58:02;;;;;;;24.60;12.20;;;;;;;;;;5022368;28;20328;-72
2021/01/31 14:00:28;;;;;;;22.20;11.87;;;;;;;;;;5032554;28;20280;-72
2021/01/31 14:02:53;;;;;;;23.67;12.37;;;;;;;;;;5023299;28;20328;-72
2021/01/31 14:05:19;;;;;;;24.47;12.80;;;;;;;;;;5031148;28;20219;-72
2021/01/31 14:07:45;;;;;;;21.90;12.27;;;;;;;;;;5022090;28;20170;-70
2021/01/31 14:10:12;;;;;;;24.80;13.07;;;;;;;;;;5029951;28;20256;-70
2021/01/31 14:12:38;;;;;;;20.90;12.70;;;;;;;;;;5029485;28;20185;-70
2021/01/31 14:15:04;;;;;;;20.57;12.17;;;;;;;;;;5018806;28;20346;-70
2021/01/31 14:17:30;;;;;;;21.47;11.60;;;;;;;;;;5024958;28;20267;-71
2021/01/31 14:19:55;;;;;;;21.43;12.23;;;;;;;;;;5023405;28;20271;-71
2021/01/31 14:22:21;;;;;;;26.50;12.87;;;;;;;;;;5026261;28;20562;-71
2021/01/31 14:24:46;;;;;;;21.30;12.37;;;;;;;;;;5016629;28;20846;-70
2021/01/31 14:27:11;;;;;;;23.93;13.40;;;;;;;;;;5028926;28;20186;-72
2021/01/31 14:29:37;;;;;;;19.97;11.93;;;;;;;;;;5017788;28;20198;-71
2021/01/31 14:32:06;;;;;;;21.00;11.97;;;;;;;;;;5028349;28;20194;-71
2021/01/31 14:34:31;;;;;;;21.33;11.67;;;;;;;;;;5019604;28;20194;-71
2021/01/31 14:36:57;;;;;;;20.17;11.33;;;;;;;;;;5029935;28;20236;-73
2021/01/31 14:39:22;;;;;;;19.97;11.57;;;;;;;;;;5020918;28;20181;-72
2021/01/31 14:41:50;;;;;;;22.33;11.40;;;;;;;;;;5025473;28;20205;-71